• Join FlightAware (Why Join?)
  • Login
  • US Flag 
10:08PM EDT


 

Airport Tracker/Info


-or-


 

Live Flight TrackerFlight Track Log ✈ UAL303 ✈ 31-Jan-2014 ✈ KJFK - KSFO

Flight Track Log - Related Links

Times and Time Zones

All times are in EST time to prevent confusion due to time zone crossing. See the UAL303 flight status page for this flight to view local times or setup timezone preferences in your user account.

Time Position Orientation Groundspeed Altitude Reporting Facility
EST Latitude Longitude Course Direction KTS MPH feet Rate Location/Type
06:46AM 40.6333 -73.8667 323° Northwest 191 220 3,000  Level New York TRACON
06:47AM 40.5833 -73.9000 207° Southwest 243 280 5,700 2,640 Climbing New York TRACON
06:48AM 40.7996 -74.0826 304° West  Level FlightAware Approximate
06:49AM 40.8546 -74.1925 303° West  Level FlightAware Approximate
06:49AM 40.6108 -73.7017 80° East 285 328 10,900  Level New York Center
06:50AM 40.9123 -74.3001 306° West  Level FlightAware Approximate
06:50AM 40.6656 -73.5944 56° Northeast 329 379 12,400  Level New York Center
06:51AM 40.9720 -74.4054 323° Northwest  Level FlightAware Approximate
06:51AM 40.7639 -73.5739 North 310 357 14,600  Level New York Center
06:52AM 40.8539 -73.5586 North 335 386 16,400 1,200 Climbing New York Center
06:53AM 40.9525 -73.6064 340° North 348 400 17,000 300 Climbing New York Center
06:54AM 41.0092 -73.6831 314° West 324 373 17,000  Level New York Center
06:55AM 41.0669 -73.7847 307° West 313 360 17,000 -60 Level New York Center
06:56AM 41.0744 -73.8950 275° West 301 346 16,900 -60 Descending New York Center
06:57AM 41.0861 -74.0086 278° West 301 346 16,900  Level New York Center
06:58AM 41.0933 -74.1217 275° West 308 354 16,900  Level New York Center
06:59AM 41.1025 -74.2350 276° West 314 361 16,900  Level New York Center
07:00AM 41.1094 -74.3483 275° West 314 361 17,000 600 Climbing New York Center
07:01AM 41.1183 -74.4644 276° West 314 361 18,100 1,440 Climbing New York Center
07:02AM 41.1292 -74.5808 277° West 314 361 19,900 1,800 Climbing New York Center
07:03AM 41.1419 -74.7053 278° West 329 379 21,700 1,800 Climbing New York Center
07:04AM 41.1900 -74.8183 299° West 339 390 23,500 2,340 Climbing New York Center
07:05AM 41.2403 -74.9319 301° West 346 398 26,400 2,100 Climbing New York Center
07:06AM 41.2825 -75.0367 298° West 341 392 27,800 1,440 Climbing New York Center
07:07AM 41.3325 -75.1447 302° West 336 387 29,300 1,320 Climbing New York Center
07:08AM 41.3806 -75.2583 299° West 341 392 30,500 1,200 Climbing New York Center
07:09AM 41.4283 -75.3694 300° West 346 398 31,700 1,740 Climbing New York Center
07:10AM 41.4739 -75.4806 299° West 341 392 34,000 1,500 Climbing New York Center
07:11AM 41.5069 -75.5908 292° West 333 383 34,800 840 Climbing New York Center
07:12AM 41.5394 -75.7097 290° West 327 376 35,700 600 Climbing New York Center
07:13AM 41.5722 -75.8231 291° West 334 384 36,000 120 Climbing New York Center
07:14AM 41.6047 -75.9392 291° West 334 384 36,000  Level New York Center
07:15AM 41.6336 -76.0414 291° West 334 384 36,000  Level New York Center
07:16AM 41.6661 -76.1522 291° West 334 384 36,000  Level New York Center
07:17AM 41.6983 -76.2686 290° West 334 384 36,000  Level New York Center
07:18AM 41.7303 -76.3825 291° West 334 384 36,000  Level New York Center
07:19AM 41.7661 -76.5081 291° West 334 384 36,000  Level New York Center
07:20AM 41.7978 -76.6247 290° West 334 384 36,000  Level New York Center
07:22AM 41.8464 -76.8031 290° West 329 379 36,000  Level Cleveland Center
07:23AM 41.8839 -76.9408 290° West 329 379 36,000  Level Cleveland Center
07:24AM 41.9156 -77.0547 291° West 328 377 36,000  Level Cleveland Center
07:25AM 41.9467 -77.1694 290° West 328 377 36,000  Level Cleveland Center
07:26AM 41.9769 -77.2828 290° West 326 375 36,000  Level Cleveland Center
07:27AM 42.0075 -77.3958 290° West 326 375 36,000  Level Cleveland Center
07:28AM 42.0372 -77.5086 290° West 324 373 36,000  Level Cleveland Center
07:29AM 42.0681 -77.6211 290° West 322 371 36,000  Level Cleveland Center
07:30AM 42.0981 -77.7333 290° West 321 369 36,000  Level Cleveland Center
07:31AM 42.1289 -77.8469 290° West 321 369 36,000  Level Cleveland Center
07:32AM 42.1586 -77.9597 290° West 321 369 36,000  Level Cleveland Center
07:33AM 42.1947 -78.0922 290° West 317 365 36,000  Level Cleveland Center
07:34AM 42.2231 -78.2022 289° West 313 360 36,000  Level Cleveland Center
07:35AM 42.2514 -78.3103 290° West 310 357 36,000  Level Cleveland Center
07:36AM 42.2775 -78.4181 288° West 304 350 36,000  Level Cleveland Center
07:37AM 42.3050 -78.5258 289° West 304 350 36,000  Level Cleveland Center
07:38AM 42.3319 -78.6336 289° West 304 350 36,000  Level Cleveland Center
07:39AM 42.3583 -78.7433 288° West 304 350 36,000  Level Cleveland Center
07:40AM 42.3856 -78.8528 289° West 305 351 36,000  Level Cleveland Center
07:41AM 42.4131 -78.9658 288° West 314 361 36,000  Level Cleveland Center
07:42AM 42.4447 -79.0992 288° West 314 361 36,000  Level Cleveland Center
07:43AM 42.4736 -79.2111 289° West 317 365 36,000  Level Cleveland Center
07:44AM 42.5017 -79.3247 289° West 317 365 36,000  Level Cleveland Center
07:45AM 42.5300 -79.4453 288° West 319 367 36,000  Level Cleveland Center
07:46AM 42.5561 -79.5564 288° West 324 373 36,000  Level Cleveland Center
07:47AM 42.5856 -79.6722 289° West 325 374 36,000  Level Cleveland Center
07:48AM 42.6131 -79.8144 285° West 325 374 36,000  Level Cleveland Center
07:49AM 42.6186 -79.9358 274° West 324 373 36,000  Level Cleveland Center
07:50AM 42.6214 -80.0497 272° West 324 373 36,000  Level Cleveland Center
07:51AM 42.6278 -80.1722 274° West 322 371 36,000  Level Cleveland Center
07:52AM 42.6325 -80.2933 273° West 320 368 36,000  Level Cleveland Center
07:53AM 42.6386 -80.4311 273° West 316 364 36,000  Level Cleveland Center
07:54AM 42.6425 -80.5503 273° West 315 362 36,000  Level Cleveland Center
07:55AM 42.6478 -80.6728 273° West 311 358 36,000  Level Cleveland Center
07:57AM 42.6519 -80.7889 273° West 317 365 36,000  Level Cleveland Center
07:58AM 42.6558 -80.9050 273° West 312 359 36,000  Level Cleveland Center
07:59AM 42.6589 -81.0219 272° West 311 358 36,000  Level Cleveland Center
08:00AM 42.6617 -81.1367 272° West 305 351 36,000  Level Cleveland Center
08:01AM 42.6656 -81.2514 273° West 304 350 36,000  Level Cleveland Center
08:02AM 42.6803 -81.3831 279° West 300 345 36,000  Level Cleveland Center
08:03AM 42.6917 -81.4958 278° West 300 345 36,000  Level Cleveland Center
08:04AM 42.7039 -81.6072 279° West 299 344 36,000  Level Cleveland Center
08:05AM 42.7169 -81.7192 279° West 297 342 36,000  Level Cleveland Center
08:06AM 42.7286 -81.8239 279° West 293 337 36,000  Level Cleveland Center
08:07AM 42.7406 -81.9350 278° West 294 338 36,000  Level Cleveland Center
08:08AM 42.7536 -82.0450 279° West 297 342 36,000  Level Cleveland Center
08:09AM 42.7692 -82.1797 279° West 299 344 36,000  Level Cleveland Center
08:10AM 42.7814 -82.2917 278° West 300 345 36,000  Level Cleveland Center
08:11AM 42.7942 -82.4053 279° West 303 349 36,000  Level Cleveland Center
08:12AM 42.8058 -82.5178 278° West 304 350 36,000  Level Cleveland Center
08:13AM 42.8197 -82.6306 280° West 304 350 36,000  Level Cleveland Center
08:14AM 42.8361 -82.7450 281° West 309 356 36,000  Level Cleveland Center
08:15AM 42.8547 -82.8819 281° West 308 354 36,000  Level Cleveland Center
08:16AM 42.8692 -82.9969 280° West 309 356 36,000  Level Cleveland Center
08:17AM 42.8833 -83.1106 280° West 309 356 36,000  Level Cleveland Center
08:18AM 42.8989 -83.2250 281° West 309 356 36,000  Level Cleveland Center
08:19AM 42.9139 -83.3400 280° West 309 356 36,000  Level Cleveland Center
08:20AM 42.9294 -83.4542 281° West 309 356 36,000  Level Cleveland Center
08:21AM 42.9486 -83.5953 281° West 313 360 36,000  Level Cleveland Center
08:22AM 42.9642 -83.7128 280° West 314 361 36,000  Level Cleveland Center
08:23AM 42.9981 -83.8267 292° West 326 375 36,000  Level Cleveland Center
08:24AM 43.0417 -83.9378 298° West 331 381 36,000  Level Cleveland Center
08:25AM 43.0836 -84.0489 297° West 331 381 36,000  Level Cleveland Center
08:26AM 43.1328 -84.1794 297° West 332 382 36,000  Level Cleveland Center
08:27AM 43.1767 -84.2950 298° West 332 382 36,000  Level Cleveland Center
08:28AM 43.2175 -84.4019 298° West 332 382 36,000  Level Chicago Center
08:29AM 43.2511 -84.5192 292° West 334 384 36,000  Level Chicago Center
08:30AM 43.2714 -84.6378 283° West 324 373 36,000  Level Chicago Center
08:31AM 43.2925 -84.7581 284° West 328 377 36,000  Level Chicago Center
08:32AM 43.3139 -84.8783 284° West 325 374 36,000  Level Chicago Center
08:34AM 43.3336 -84.9992 283° West 327 376 36,000  Level Chicago Center
08:35AM 43.3544 -85.1197 283° West 326 375 36,000  Level Chicago Center
08:36AM 43.3783 -85.2636 283° West 325 374 36,000  Level Chicago Center
08:37AM 43.3981 -85.3853 283° West 327 376 36,000  Level Chicago Center
08:38AM 43.4186 -85.5050 283° West 326 375 36,000  Level Chicago Center
08:39AM 43.4386 -85.6267 283° West 328 377 36,000  Level Chicago Center
08:40AM 43.4589 -85.7481 283° West 329 379 36,000  Level Chicago Center
08:41AM 43.4781 -85.8692 282° West 328 377 36,000  Level Chicago Center
08:43AM 43.4961 -86.1364 275° West 325 374 36,000  Level Cleveland Center
08:44AM 43.4922 -86.2586 268° West 325 374 36,000  Level Cleveland Center
08:45AM 43.4889 -86.3789 268° West 321 369 36,000  Level Chicago Center
08:46AM 43.4858 -86.5006 268° West 321 369 36,000  Level Chicago Center
08:47AM 43.4822 -86.6222 268° West 320 368 36,000  Level Chicago Center
08:48AM 43.4783 -86.7425 267° West 318 366 36,000  Level Chicago Center
08:49AM 43.4742 -86.8633 267° West 317 365 36,000  Level Chicago Center
08:50AM 43.4686 -87.0092 267° West 319 367 36,000  Level Chicago Center
08:51AM 43.4650 -87.1311 268° West 319 367 36,000  Level Chicago Center
08:52AM 43.4600 -87.2528 267° West 320 368 36,000  Level Chicago Center
08:53AM 43.4550 -87.3875 267° West 320 368 36,000  Level Chicago Center
08:54AM 43.4611 -87.5106 274° West 321 369 36,000  Level Chicago Center
08:55AM 43.4714 -87.6344 277° West 325 374 36,000  Level Chicago Center
08:56AM 43.4789 -87.7569 275° West 323 372 36,000  Level Chicago Center
08:57AM 43.4864 -87.8803 275° West 324 373 36,000  Level Chicago Center
08:58AM 43.4947 -88.0028 275° West 323 372 36,000  Level Chicago Center
08:59AM 43.5019 -88.1261 275° West 324 373 36,000  Level Chicago Center
09:00AM 43.5106 -88.2506 275° West 328 377 36,000  Level Chicago Center
09:01AM 43.5206 -88.3975 275° West 327 376 36,000 -60 Level Chicago Center
09:02AM 43.5292 -88.5106 276° West 327 376 35,900  Descending Chicago Center
09:03AM 43.5364 -88.6414 274° West 330 380 36,000  Climbing Chicago Center
09:04AM 43.5456 -88.7678 276° West 333 383 36,000  Level Chicago Center
09:05AM 43.5531 -88.8933 275° West 332 382 36,000  Level Chicago Center
09:06AM 43.5625 -89.0444 275° West 332 382 36,000  Level Chicago Center
09:07AM 43.5697 -89.1722 275° West 335 386 36,000  Level Chicago Center
09:08AM 43.5775 -89.2992 275° West 337 388 36,000  Level Chicago Center
09:09AM 43.5850 -89.4256 275° West 333 383 36,000  Level Chicago Center
09:10AM 43.5936 -89.5519 275° West 335 386 36,000  Level Chicago Center
09:11AM 43.5992 -89.6789 274° West 335 386 36,000  Level Chicago Center
09:12AM 43.6072 -89.8053 275° West 333 383 36,000  Level Chicago Center
09:13AM 43.6125 -89.9328 273° West 334 384 36,000  Level Chicago Center
09:14AM 43.6214 -90.0858 275° West 334 384 36,000  Level Chicago Center
09:16AM 43.6269 -90.2128 274° West 333 383 36,000  Level Chicago Center
09:17AM 43.6342 -90.3319 275° West 335 386 36,000  Level Chicago Center
09:18AM 43.6389 -90.4597 273° West 336 387 36,000  Level Chicago Center
09:19AM 43.6469 -90.5883 275° West 338 389 36,000  Level Chicago Center
09:20AM 43.6533 -90.7428 273° West 338 389 36,000  Level Chicago Center
09:21AM 43.6592 -90.8719 274° West 339 390 36,000  Level Chicago Center
09:22AM 43.6656 -91.0003 274° West 339 390 36,000  Level Chicago Center
09:23AM 43.6719 -91.1322 274° West 345 397 36,000  Level Chicago Center
09:24AM 43.6772 -91.2639 273° West 347 399 36,000  Level Chicago Center
09:25AM 43.6819 -91.3956 273° West 347 399 36,000  Level Chicago Center
09:26AM 43.6889 -91.5542 274° West 349 402 36,000  Level Minneapolis Center
09:27AM 43.6947 -91.6886 273° West 351 404 36,000  Level Minneapolis Center
09:28AM 43.6992 -91.8211 273° West 349 402 36,000  Level Minneapolis Center
09:29AM 43.7042 -91.9544 273° West 349 402 36,000  Level Minneapolis Center
09:30AM 43.7094 -92.1158 273° West 352 405 36,000  Level Minneapolis Center
09:31AM 43.7150 -92.2492 273° West 352 405 36,000  Level Minneapolis Center
09:32AM 43.7192 -92.3819 273° West 349 402 36,000  Level Minneapolis Center
09:33AM 43.7233 -92.5158 273° West 352 405 36,000  Level Minneapolis Center
09:34AM 43.7269 -92.6503 272° West 352 405 36,000  Level Minneapolis Center
09:35AM 43.7303 -92.7842 272° West 351 404 36,000  Level Minneapolis Center
09:36AM 43.7333 -92.9203 272° West 355 409 36,000  Level Minneapolis Center
09:37AM 43.7378 -93.0542 273° West 353 406 36,000  Level Minneapolis Center
09:38AM 43.7433 -93.2019 273° West 351 404 36,000  Level Minneapolis Center
09:39AM 43.7464 -93.3369 272° West 351 404 36,000  Level Minneapolis Center
09:40AM 43.7492 -93.4700 272° West 347 399 36,000  Level Minneapolis Center
09:41AM 43.7467 -93.6056 269° West 350 403 36,000  Level Minneapolis Center
09:42AM 43.7411 -93.7397 267° West 349 402 36,000  Level Minneapolis Center
09:43AM 43.7356 -93.8731 267° West 349 402 36,000  Level Minneapolis Center
09:44AM 43.7297 -94.0350 267° West 351 404 36,000  Level Minneapolis Center
09:45AM 43.7233 -94.1700 266° West 352 405 36,000  Level Minneapolis Center
09:46AM 43.7178 -94.2994 267° West 354 407 36,000  Level Minneapolis Center
09:47AM 43.7133 -94.4342 267° West 352 405 36,000  Level Minneapolis Center
09:48AM 43.7081 -94.5697 267° West 353 406 36,000  Level Minneapolis Center
09:49AM 43.7025 -94.7058 267° West 355 409 36,000  Level Minneapolis Center
09:50AM 43.6956 -94.8417 266° West 355 409 36,000  Level Minneapolis Center
09:51AM 43.6903 -94.9789 267° West 357 411 36,000  Level Minneapolis Center
09:52AM 43.6806 -95.1408 265° West 354 407 36,000  Level Minneapolis Center
09:53AM 43.6722 -95.2772 265° West 355 409 36,000  Level Minneapolis Center
09:54AM 43.6650 -95.4142 266° West 357 411 36,000  Level Minneapolis Center
09:55AM 43.6572 -95.5519 266° West 359 413 36,000  Level Minneapolis Center
09:56AM 43.6508 -95.6897 266° West 359 413 36,000  Level Minneapolis Center
09:58AM 43.6425 -95.8269 265° West 359 413 36,000  Level Minneapolis Center
09:59AM 43.6347 -95.9656 266° West 360 414 36,000  Level Minneapolis Center
10:00AM 43.6272 -96.1047 266° West 362 417 36,000  Level Minneapolis Center
10:01AM 43.6183 -96.2436 265° West 362 417 36,100 300 Climbing Minneapolis Center
10:02AM 43.6108 -96.3808 266° West 359 413 36,700 900 Climbing Minneapolis Center
10:03AM 43.6003 -96.5472 265° West 362 417 38,000 600 Climbing Minneapolis Center
10:04AM 43.5919 -96.6822 265° West 355 409 38,000  Level Minneapolis Center
10:05AM 43.5825 -96.8164 264° West 352 405 38,000  Level Minneapolis Center
10:06AM 43.5728 -96.9536 264° West 356 410 38,000  Level Minneapolis Center
10:07AM 43.5633 -97.0931 265° West 363 418 38,000  Level Minneapolis Center
10:08AM 43.5542 -97.2339 265° West 367 422 38,000  Level Minneapolis Center
10:09AM 43.5453 -97.3753 265° West 369 425 38,000  Level Minneapolis Center
10:10AM 43.5350 -97.5158 264° West 370 426 38,000  Level Minneapolis Center
10:11AM 43.5250 -97.6558 264° West 369 425 38,000  Level Minneapolis Center
10:12AM 43.5144 -97.7958 264° West 368 423 38,000  Level Minneapolis Center
10:13AM 43.5014 -97.9622 264° West 366 421 38,000  Level Minneapolis Center
10:14AM 43.4850 -98.1008 261° West 366 421 38,000  Level Minneapolis Center
10:15AM 43.4633 -98.2381 258° West 368 423 38,000  Level Minneapolis Center
10:16AM 43.4425 -98.3750 258° West 367 422 38,000  Level Minneapolis Center
10:17AM 43.4228 -98.5133 259° West 369 425 38,000  Level Minneapolis Center
10:18AM 43.4014 -98.6514 258° West 369 425 38,000  Level Minneapolis Center
10:19AM 43.3800 -98.7892 258° West 370 426 38,000  Level Minneapolis Center
10:20AM 43.3589 -98.9294 258° West 374 430 38,000  Level Minneapolis Center
10:21AM 43.3339 -99.0844 258° West 375 432 38,000  Level Minneapolis Center
10:22AM 43.3117 -99.2242 258° West 376 433 38,000  Level Minneapolis Center
10:23AM 43.2897 -99.3642 258° West 376 433 38,000  Level Minneapolis Center
10:24AM 43.2669 -99.5061 258° West 379 436 38,000  Level Minneapolis Center
10:25AM 43.2444 -99.6472 258° West 380 437 38,000  Level Minneapolis Center
10:26AM 43.2208 -99.7917 257° West 386 444 38,000  Level Minneapolis Center
10:27AM 43.1939 -99.9608 258° West 382 440 38,000  Level Minneapolis Center
10:28AM 43.1686 -100.1042 256° West 384 442 38,000  Level Minneapolis Center
10:29AM 43.1442 -100.2450 257° West 383 441 38,000  Level Minneapolis Center
10:30AM 43.1214 -100.3781 257° West 387 445 38,000  Level Denver Center
10:31AM 43.0950 -100.5347 257° West 383 441 38,000  Level Denver Center
10:32AM 43.0722 -100.6731 257° West 388 447 38,000  Level Denver Center
10:33AM 43.0481 -100.8092 256° West 386 444 38,000  Level Denver Center
10:35AM 43.0203 -100.9694 257° West 387 445 38,000  Level Denver Center
10:36AM 42.9878 -101.1525 256° West 388 447 38,000  Level Denver Center
10:37AM 42.9639 -101.2897 257° West 389 448 38,000  Level Denver Center
10:38AM 42.9397 -101.4258 256° West 388 447 38,000  Level Denver Center
10:39AM 42.9103 -101.5842 256° West 387 445 38,000  Level Denver Center
10:40AM 42.8850 -101.7222 256° West 391 450 38,000  Level Denver Center
10:41AM 42.8558 -101.8839 256° West 387 445 38,000  Level Denver Center
10:42AM 42.8308 -102.0211 256° West 390 449 38,000  Level Denver Center
10:43AM 42.8044 -102.1567 255° West 388 447 38,000  Level Denver Center
10:44AM 42.7594 -102.3097 248° West 386 444 38,000  Level Denver Center
10:45AM 42.7167 -102.4414 246° West 395 455 38,000  Level Denver Center
10:46AM 42.6683 -102.5933 247° West 393 452 38,000  Level Denver Center
10:47AM 42.6264 -102.7225 246° West 392 451 38,000  Level Denver Center
10:48AM 42.5767 -102.8753 246° West 394 453 38,000  Level Denver Center
10:49AM 42.5342 -103.0061 246° West 396 456 38,000  Level Denver Center
10:50AM 42.4906 -103.1353 245° Southwest 394 453 38,000  Level Denver Center
10:51AM 42.4403 -103.2867 246° West 394 453 38,000  Level Denver Center
10:52AM 42.3992 -103.4178 247° West 395 455 38,000  Level Denver Center
10:53AM 42.3486 -103.5686 246° West 395 455 38,000  Level Denver Center
10:54AM 42.3064 -103.6972 246° West 391 450 38,000  Level Denver Center
10:55AM 42.2558 -103.8483 246° West 394 453 38,000  Level Denver Center
10:56AM 42.2114 -103.9764 245° Southwest 392 451 38,000  Level Denver Center
10:57AM 42.1681 -104.1061 246° West 395 455 38,000  Level Denver Center
10:58AM 42.1156 -104.2564 245° Southwest 396 456 38,000  Level Denver Center
10:59AM 42.0711 -104.3847 245° Southwest 394 453 38,000  Level Denver Center
11:00AM 42.0200 -104.5344 245° Southwest 393 452 38,000  Level Denver Center
11:01AM 41.9764 -104.6614 245° Southwest 389 448 38,000  Level Denver Center
11:02AM 41.9247 -104.8106 245° Southwest 393 452 38,000  Level Denver Center
11:03AM 41.8808 -104.9383 245° Southwest 394 453 38,000  Level Denver Center
11:04AM 41.8356 -105.0661 245° Southwest 395 455 38,000  Level Denver Center
11:05AM 41.7833 -105.2119 244° Southwest 391 450 38,000  Level Denver Center
11:06AM 41.7381 -105.3394 245° Southwest 394 453 38,000  Level Denver Center
11:07AM 41.6856 -105.4864 244° Southwest 391 450 38,000  Level Denver Center
11:08AM 41.6403 -105.6119 244° Southwest 392 451 38,000  Level Denver Center
11:10AM 41.5875 -105.7583 244° Southwest 392 451 38,000  Level Denver Center
11:11AM 41.5411 -105.8844 244° Southwest 394 453 38,000  Level Denver Center
11:12AM 41.4903 -106.0328 245° Southwest 393 452 38,000  Level Denver Center
11:13AM 41.4592 -106.1675 253° West 396 456 38,000  Level Denver Center
11:14AM 41.4222 -106.3239 253° West 397 457 38,000  Level Denver Center
11:15AM 41.3883 -106.4583 251° West 398 458 38,000  Level Denver Center
11:16AM 41.3539 -106.6028 252° West 400 460 38,000  Level Denver Center
11:17AM 41.3189 -106.7364 251° West 400 460 38,000  Level Denver Center
11:18AM 41.2817 -106.8958 253° West 404 465 38,000  Level Denver Center
11:19AM 41.2461 -107.0306 251° West 404 465 38,000  Level Denver Center
11:20AM 41.2064 -107.1881 252° West 403 464 38,000  Level Denver Center
11:21AM 41.1731 -107.3225 252° West 401 461 38,000  Level Denver Center
11:22AM 41.1336 -107.4792 252° West 401 461 38,000  Level Denver Center
11:23AM 41.0997 -107.6125 251° West 400 460 38,000  Level Denver Center
11:24AM 41.0597 -107.7692 251° West 401 461 38,000  Level Denver Center
11:25AM 41.0253 -107.9031 251° West 401 461 38,000  Level Denver Center
11:26AM 40.9794 -108.0578 249° West 403 464 38,000  Level Denver Center
11:27AM 40.9300 -108.1850 243° Southwest 405 466 38,000  Level Denver Center
11:28AM 40.8733 -108.3333 243° Southwest 405 466 38,000  Level Denver Center
11:29AM 40.8258 -108.4619 244° Southwest 406 467 38,000  Level Denver Center
11:31AM 40.7181 -108.7417 243° Southwest 405 466 38,000  Level Denver Center
11:32AM 40.6683 -108.8681 243° Southwest 407 468 38,000  Level Denver Center
11:33AM 40.6108 -109.0161 243° Southwest 406 467 38,000  Level Denver Center
11:34AM 40.5614 -109.1431 243° Southwest 407 468 38,000  Level Denver Center
11:35AM 40.5042 -109.2892 243° Southwest 406 467 38,000  Level Denver Center
11:36AM 40.4569 -109.4169 244° Southwest 407 468 38,000  Level Denver Center
11:37AM 40.4044 -109.5675 245° Southwest 407 468 38,000  Level Denver Center
11:38AM 40.3589 -109.6969 245° Southwest 408 470 38,000  Level Denver Center
11:40AM 40.3042 -109.8481 245° Southwest 410 472 38,000  Level Denver Center
11:41AM 40.2572 -109.9767 244° Southwest 411 473 38,000  Level Denver Center
11:42AM 40.2028 -110.1264 245° Southwest 409 471 38,000  Level Denver Center
11:43AM 40.1403 -110.2986 245° Southwest 410 472 38,000  Level Salt Lake Center
11:44AM 40.0942 -110.4278 245° Southwest 410 472 38,000  Level Salt Lake Center
11:45AM 40.0389 -110.5783 244° Southwest 412 474 38,000  Level Salt Lake Center
11:46AM 39.9908 -110.7092 244° Southwest 416 479 38,000  Level Salt Lake Center
11:47AM 39.9342 -110.8594 244° Southwest 414 476 38,000  Level Salt Lake Center
11:48AM 39.8861 -110.9892 244° Southwest 416 479 38,000  Level Salt Lake Center
11:49AM 39.8300 -111.1406 244° Southwest 415 478 38,000  Level Salt Lake Center
11:50AM 39.7806 -111.2706 244° Southwest 419 482 38,000  Level Salt Lake Center
11:51AM 39.7286 -111.4036 243° Southwest 418 481 38,000  Level Salt Lake Center
11:52AM 39.6775 -111.5397 244° Southwest 420 483 38,000  Level Salt Lake Center
11:53AM 39.6147 -111.7017 243° Southwest 417 480 38,000  Level Salt Lake Center
11:54AM 39.5633 -111.8353 244° Southwest 415 478 38,000  Level Salt Lake Center
11:55AM 39.5114 -111.9700 243° Southwest 416 479 38,000  Level Salt Lake Center
11:56AM 39.4592 -112.1044 243° Southwest 416 479 38,000  Level Salt Lake Center
11:57AM 39.4078 -112.2372 243° Southwest 413 475 38,000  Level Salt Lake Center
11:58AM 39.3572 -112.3706 244° Southwest 413 475 38,000  Level Salt Lake Center
11:59AM 39.3061 -112.4969 242° Southwest 404 465 38,000  Level Salt Lake Center
12:00PM 39.2689 -112.6317 250° West 399 459 38,000  Level Salt Lake Center
12:01PM 39.2392 -112.7867 256° West 402 463 38,000  Level Salt Lake Center
12:03PM 39.2072 -112.9294 254° West 414 476 38,000  Level Salt Lake Center
12:04PM 39.1686 -113.0936 253° West 404 465 38,000  Level Salt Lake Center
12:05PM 39.1369 -113.2317 254° West 402 463 38,000  Level Salt Lake Center
12:06PM 39.1036 -113.3744 253° West 412 474 38,000  Level Salt Lake Center
12:07PM 39.0717 -113.5153 254° West 412 474 38,000  Level Salt Lake Center
12:08PM 39.0392 -113.6567 254° West 414 476 38,000  Level Salt Lake Center
12:09PM 39.0053 -113.7981 253° West 415 478 38,000  Level Salt Lake Center
12:10PM 38.9672 -113.9606 253° West 401 461 38,000  Level Salt Lake Center
12:11PM 38.9350 -114.0950 253° West 396 456 38,000  Level Salt Lake Center
12:12PM 38.9019 -114.2308 253° West 399 459 38,000  Level Salt Lake Center
12:13PM 38.8692 -114.3681 253° West 403 464 38,000  Level Salt Lake Center
12:14PM 38.8358 -114.5064 253° West 406 467 38,000  Level Salt Lake Center
12:15PM 38.7950 -114.6711 252° West 407 468 38,000  Level Salt Lake Center
12:16PM 38.7606 -114.8089 252° West 407 468 38,000  Level Salt Lake Center
12:17PM 38.7261 -114.9461 252° West 407 468 38,000  Level Salt Lake Center
12:18PM 38.7008 -115.0856 257° West 407 468 38,000  Level Salt Lake Center
12:19PM 38.7422 -115.2133 293° West 400 460 38,000  Level Salt Lake Center
12:20PM 38.8158 -115.3203 311° West 399 459 38,000  Level Salt Lake Center
12:21PM 38.8714 -115.4611 297° West 391 450 38,000  Level Salt Lake Center
12:22PM 38.8397 -115.5939 253° West 391 450 38,000  Level Salt Lake Center
12:23PM 38.7903 -115.7208 243° Southwest 396 456 38,000  Level Salt Lake Center
12:24PM 38.7431 -115.8481 245° Southwest 395 455 38,000  Level Salt Lake Center
12:25PM 38.6950 -115.9750 244° Southwest 395 455 38,000  Level Salt Lake Center
12:26PM 38.6372 -116.1269 244° Southwest 396 456 38,000  Level Salt Lake Center
12:27PM 38.5897 -116.2553 245° Southwest 398 458 38,000  Level Salt Lake Center
12:28PM 38.5422 -116.3839 245° Southwest 400 460 38,000  Level Salt Lake Center
12:29PM 38.4936 -116.5117 244° Southwest 400 460 38,000  Level Salt Lake Center
12:30PM 38.4444 -116.6389 244° Southwest 401 461 38,000  Level Salt Lake Center
12:31PM 38.3964 -116.7669 244° Southwest 402 463 38,000  Level Oakland Center
12:32PM 38.3467 -116.8942 244° Southwest 401 461 38,000  Level Oakland Center
12:33PM 38.2978 -117.0208 244° Southwest 402 463 38,000  Level Oakland Center
12:34PM 38.2489 -117.1467 244° Southwest 402 463 38,000  Level Oakland Center
12:35PM 38.2008 -117.2697 244° Southwest 404 465 38,000  Level Oakland Center
12:36PM 38.1450 -117.4114 243° Southwest 401 461 38,000  Level Oakland Center
12:37PM 38.0914 -117.5472 243° Southwest 405 466 38,000  Level Oakland Center
12:38PM 38.0403 -117.6744 243° Southwest 405 466 38,000  Level Oakland Center
12:39PM 37.9992 -117.8078 249° West 409 471 38,000  Level Oakland Center
12:41PM 37.9839 -117.9483 262° West 402 463 38,000  Level Oakland Center
12:42PM 37.9692 -118.0897 263° West 404 465 38,000  Level Oakland Center
12:43PM 37.9533 -118.2289 262° West 400 460 38,000  Level Oakland Center
12:44PM 37.9397 -118.3606 263° West 383 441 38,000  Level Oakland Center
12:45PM 37.9250 -118.4914 262° West 377 434 38,000  Level Oakland Center
12:46PM 37.9078 -118.6503 262° West 379 436 38,000  Level Oakland Center
12:47PM 37.8925 -118.7853 262° West 386 444 38,000  Level Oakland Center
12:48PM 37.8775 -118.9181 262° West 382 440 38,000  Level Oakland Center
12:49PM 37.8631 -119.0428 262° West 384 442 38,000  Level Oakland Center
12:50PM 37.8483 -119.1767 262° West 384 442 38,000  Level Oakland Center
12:51PM 37.8319 -119.3086 261° West 382 440 38,000  Level Oakland Center
12:52PM 37.8133 -119.4683 262° West 382 440 38,000  Level Oakland Center
12:53PM 37.7981 -119.5997 262° West 379 436 38,000  Level Oakland Center
12:54PM 37.7822 -119.7319 261° West 379 436 38,000  Level Oakland Center
12:55PM 37.7658 -119.8639 261° West 379 436 38,000 -780 Level Oakland Center
12:56PM 37.7494 -119.9944 261° West 377 434 36,500 -1,620 Descending Oakland Center
12:57PM 37.7344 -120.1222 262° West 370 426 34,800 -1,920 Descending Oakland Center
12:58PM 37.7183 -120.2464 261° West 363 418 32,600 -1,500 Descending Oakland Center
12:59PM 37.7033 -120.3711 261° West 360 414 31,800 -1,560 Descending Oakland Center
01:00PM 37.6856 -120.5011 260° West 368 423 29,500 -2,160 Descending Oakland Center
01:01PM 37.6683 -120.6278 260° West 368 423 27,400 -2,760 Descending Oakland Center
01:02PM 37.6511 -120.7725 261° West 355 409 23,900 -3,120 Descending Oakland Center
01:03PM 37.6356 -120.8922 261° West 348 400 21,100 -2,220 Descending Oakland Center
01:04PM 37.6333 -120.9667 268° West 355 409 20,100 -1,320 Descending Northern Cal TRACON
01:05PM 37.6167 -121.1000 261° West 347 399 18,900 -1,380 Descending Northern Cal TRACON
01:06PM 37.6000 -121.2167 260° West 354 407 17,400 -2,160 Descending Northern Cal TRACON
01:07PM 37.5833 -121.3333 260° West 348 400 14,600 -2,580 Descending Northern Cal TRACON
01:08PM 37.5667 -121.4500 260° West 341 392 12,300 -1,800 Descending Northern Cal TRACON
01:09PM 37.5500 -121.5667 260° West 315 362 11,000 -600 Descending Northern Cal TRACON
01:10PM 37.5500 -121.6667 270° West 275 316 11,100 -600 Climbing Northern Cal TRACON
01:11PM 37.5167 -121.7500 243° Southwest 276 318 9,900 -1,200 Descending Northern Cal TRACON
01:12PM 37.5000 -121.8500 258° West 275 316 8,700 -1,080 Descending Northern Cal TRACON
01:13PM 37.4833 -121.9167 253° West 263 303 7,900 -900 Descending Northern Cal TRACON
01:14PM 37.5000 -122.0167 282° West 228 262 6,900 -1,020 Descending Northern Cal TRACON
01:15PM 37.5167 -122.0833 288° West 181 208 5,800 -1,260 Descending Northern Cal TRACON
01:16PM 37.5333 -122.1333 293° West 178 205 4,600 -1,320 Descending Northern Cal TRACON
01:16PM 37.5519 -122.1658 306° West 183 211 3,700 -1,320 Descending Oakland Center
01:17PM 37.5692 -122.2206 292° West 174 200 2,400 -1,080 Descending Oakland Center
01:18PM 37.5839 -122.2697 291° West 163 188 1,500 -840 Descending Oakland Center
01:19PM 37.5933 -122.3131 285° West 144 166 800 -720 Descending Oakland Center
01:20PM 37.6108 -122.3531 299° West 134 154 100 -720 Descending Oakland Center